Time;durP1;ratioP1;P1;durP2;ratioP2;P2;SDS_P1;SDS_P2;PMS_P1;PMS_P2;Temp;Humidity;BMP_temperature;BMP_pressure;BME280_temperature;BME280_humidity;BME280_pressure;Samples;Min_cycle;Max_cycle;Signal;HPM_P1;HPM_P2
2023/01/10 00:00:52;;;;;;;100.80;44.95;;;;;;;4.43;100.00;100201.78;5031790;28;20021;-76
2023/01/10 00:03:17;;;;;;;97.95;42.17;;;;;;;4.23;100.00;100164.84;5031625;28;20036;-76
2023/01/10 00:05:44;;;;;;;94.10;42.42;;;;;;;4.45;100.00;100194.19;5031400;28;20083;-77
2023/01/10 00:08:14;;;;;;;92.07;41.95;;;;;;;4.46;100.00;100204.53;5031320;28;20017;-78
2023/01/10 00:10:40;;;;;;;104.13;42.10;;;;;;;4.49;100.00;100198.69;5029830;28;20022;-77
2023/01/10 00:13:24;;;;;;;89.03;40.83;;;;;;;4.50;100.00;100191.09;5031355;28;20030;-76
2023/01/10 00:15:54;;;;;;;78.13;38.67;;;;;;;4.42;100.00;100204.25;5031118;28;20025;-80
2023/01/10 00:18:21;;;;;;;73.88;37.08;;;;;;;4.32;100.00;100205.38;5031133;28;20021;-76
2023/01/10 00:20:48;;;;;;;81.07;36.60;;;;;;;4.01;100.00;100173.84;5031146;28;20025;-77
2023/01/10 00:23:13;;;;;;;80.78;37.42;;;;;;;4.14;100.00;100206.09;5030024;28;20032;-76
2023/01/10 00:25:39;;;;;;;81.15;36.88;;;;;;;4.04;100.00;100201.25;5030741;28;20030;-75
2023/01/10 00:28:22;;;;;;;80.85;38.50;;;;;;;3.98;100.00;100180.44;5030034;28;20112;-76
2023/01/10 00:31:00;;;;;;;85.97;40.28;;;;;;;3.80;100.00;100154.69;5029439;28;20128;-77
2023/01/10 00:33:30;;;;;;;82.88;38.75;;;;;;;3.96;100.00;100184.56;5030737;28;20029;-77
2023/01/10 00:35:56;;;;;;;80.90;39.28;;;;;;;3.72;100.00;100155.09;5031106;28;20116;-75
2023/01/10 00:38:22;;;;;;;85.00;39.28;;;;;;;3.67;100.00;100169.28;5029391;28;20120;-76
2023/01/10 00:40:48;;;;;;;86.25;39.90;;;;;;;3.56;100.00;100163.56;5029822;28;20030;-74
2023/01/10 00:46:35;;;;;;;86.75;40.50;;;;;;;3.67;100.00;100153.97;5183201;22;20424;-76
2023/01/10 00:49:01;;;;;;;76.15;40.67;;;;;;;3.54;100.00;100115.75;4999788;28;20117;-75
2023/01/10 00:51:27;;;;;;;79.70;38.50;;;;;;;3.71;100.00;100143.16;5007225;28;20038;-75
2023/01/10 00:53:53;;;;;;;74.60;38.25;;;;;;;3.57;100.00;100121.03;5012207;28;20503;-78
2023/01/10 00:56:18;;;;;;;83.80;38.50;;;;;;;3.68;100.00;100148.06;5027129;28;20053;-77
2023/01/10 00:58:43;;;;;;;80.40;41.25;;;;;;;3.74;100.00;100152.66;5012106;28;20034;-75
2023/01/10 01:01:09;;;;;;;77.90;37.85;;;;;;;3.81;100.00;100151.34;5011916;28;20030;-76
2023/01/10 01:03:35;;;;;;;86.88;40.72;;;;;;;3.87;100.00;100141.50;5011833;28;20105;-75
2023/01/10 01:06:05;;;;;;;74.45;37.80;;;;;;;3.96;100.00;100136.03;5011763;28;20615;-76
2023/01/10 01:08:31;;;;;;;79.25;39.67;;;;;;;4.02;100.00;100137.25;5012034;28;20109;-77
2023/01/10 01:10:56;;;;;;;79.45;39.97;;;;;;;3.65;100.00;100062.75;5011804;28;20030;-76
2023/01/10 01:13:22;;;;;;;86.18;41.03;;;;;;;4.13;100.00;100122.56;5011907;28;20034;-75
2023/01/10 01:15:48;;;;;;;80.65;41.35;;;;;;;4.21;100.00;100130.66;5011743;28;20042;-75
2023/01/10 01:18:18;;;;;;;84.38;41.13;;;;;;;4.23;100.00;100126.53;5011874;28;20440;-75
2023/01/10 01:20:46;;;;;;;;;;;;;;;4.22;100.00;100122.19;5012234;28;20029;-75
2023/01/10 01:23:13;;;;;;;85.65;38.92;;;;;;;4.15;100.00;100110.75;5011783;28;19909;-76
2023/01/10 01:25:38;;;;;;;86.97;40.75;;;;;;;4.24;100.00;100104.41;5011791;28;20488;-77
2023/01/10 01:28:04;;;;;;;76.47;40.03;;;;;;;4.24;100.00;100105.28;5011695;28;20030;-77
2023/01/10 01:30:30;;;;;;;79.85;39.05;;;;;;;4.26;100.00;100085.84;5011549;28;20109;-75
2023/01/10 01:32:55;;;;;;;77.28;38.08;;;;;;;4.22;100.00;100096.66;5011629;28;20481;-74
2023/01/10 01:35:21;;;;;;;81.30;38.65;;;;;;;4.21;100.00;100097.44;5011683;28;20034;-81
2023/01/10 01:37:46;;;;;;;76.10;36.75;;;;;;;4.08;100.00;100088.22;5011935;28;20080;-80
2023/01/10 01:40:18;;;;;;;82.25;37.33;;;;;;;3.84;100.00;100054.50;5011684;28;20033;-79
2023/01/10 01:42:44;;;;;;;76.85;38.25;;;;;;;3.86;100.00;100079.34;5010183;28;20497;-80
2023/01/10 01:45:13;;;;;;;81.95;35.78;;;;;;;3.82;100.00;100094.38;5009799;28;20153;-76
2023/01/10 01:47:41;;;;;;;69.47;34.13;;;;;;;3.56;100.00;100058.00;5011480;28;20033;-75
2023/01/10 01:50:40;;;;;;;73.93;35.80;;;;;;;3.76;100.00;100087.25;5001696;28;20052;-75
2023/01/10 01:53:28;;;;;;;75.93;35.80;;;;;;;3.69;100.00;100082.59;5000388;28;20037;-77
2023/01/10 01:56:01;;;;;;;80.60;36.38;;;;;;;3.60;100.00;100066.72;4989383;28;20030;-76
2023/01/10 01:58:37;;;;;;;80.30;38.22;;;;;;;3.59;100.00;100067.50;5007498;28;20457;-76
2023/01/10 02:01:02;;;;;;;70.22;36.67;;;;;;;3.63;100.00;100064.38;5012203;28;20173;-77
2023/01/10 02:03:29;;;;;;;78.78;39.10;;;;;;;3.63;100.00;100061.81;5012198;28;20033;-77
2023/01/10 02:05:54;;;;;;;88.63;40.78;;;;;;;3.55;100.00;100061.34;5012085;28;20051;-77
2023/01/10 02:08:20;;;;;;;88.40;39.38;;;;;;;3.60;100.00;100069.28;5011894;28;20761;-78
2023/01/10 02:11:07;;;;;;;88.93;42.35;;;;;;;3.48;100.00;100055.00;4978968;28;20073;-76
2023/01/10 02:13:37;;;;;;;83.90;41.75;;;;;;;3.56;100.00;100065.66;5011857;28;20122;-74
2023/01/10 02:16:03;;;;;;;91.88;42.92;;;;;;;3.47;100.00;100055.78;5011925;28;20068;-74
2023/01/10 02:18:30;;;;;;;72.93;39.05;;;;;;;3.55;100.00;100054.59;5011803;28;20116;-77
2023/01/10 02:21:21;;;;;;;77.88;38.75;;;;;;;3.52;100.00;100050.97;5011738;28;20084;-78
2023/01/10 02:23:50;;;;;;;82.20;39.08;;;;;;;3.51;100.00;100059.41;4995266;28;20026;-81
2023/01/10 02:26:21;;;;;;;72.57;38.60;;;;;;;3.56;100.00;100053.78;4994788;28;20045;-78
2023/01/10 02:29:08;;;;;;;77.78;39.05;;;;;;;3.55;100.00;100046.94;5012054;28;20469;-78
2023/01/10 02:31:53;;;;;;;68.40;35.90;;;;;;;3.55;100.00;100036.72;4995325;28;20030;-79
2023/01/10 02:34:29;;;;;;;74.68;40.05;;;;;;;3.66;100.00;100039.00;5034167;28;20068;-81
2023/01/10 02:37:04;;;;;;;75.28;37.67;;;;;;;3.70;100.00;100029.06;5012669;28;20508;-77
2023/01/10 02:40:07;;;;;;;64.10;34.80;;;;;;;3.76;100.00;100027.66;4995405;28;20516;-76
2023/01/10 02:42:43;;;;;;;65.25;35.83;;;;;;;3.73;100.00;100019.00;4991552;28;20049;-76
2023/01/10 02:45:15;;;;;;;64.30;33.20;;;;;;;3.73;100.00;100013.91;4991298;28;20112;-77
2023/01/10 02:47:41;;;;;;;55.70;32.70;;;;;;;3.67;100.00;100011.00;4991581;28;20039;-77
2023/01/10 02:50:21;;;;;;;60.35;33.20;;;;;;;3.68;100.00;100009.34;4991542;28;20034;-81
2023/01/10 02:52:47;;;;;;;56.28;32.15;;;;;;;3.63;100.00;100005.66;4991414;28;20521;-77
2023/01/10 02:55:12;;;;;;;58.53;33.63;;;;;;;3.62;100.00;100004.75;4991460;28;20038;-78
2023/01/10 02:58:01;;;;;;;64.28;34.80;;;;;;;3.60;100.00;99996.16;4991444;28;20617;-77
2023/01/10 03:00:47;;;;;;;62.42;33.33;;;;;;;3.56;100.00;99971.22;4974933;28;20049;-76
2023/01/10 03:03:44;;;;;;;64.95;34.55;;;;;;;3.45;100.00;99949.31;4990691;28;20033;-77
2023/01/10 03:06:39;;;;;;;60.95;32.95;;;;;;;3.69;100.00;99972.81;4952025;29;20047;-77
2023/01/10 03:09:16;;;;;;;56.00;30.90;;;;;;;3.72;100.00;99960.22;4952484;28;20114;-77
2023/01/10 03:11:45;;;;;;;61.85;31.98;;;;;;;3.67;100.00;99949.72;4952384;29;20051;-76
2023/01/10 03:14:18;;;;;;;54.20;30.33;;;;;;;3.71;100.00;99961.00;4952265;29;20102;-77
2023/01/10 03:16:48;;;;;;;59.50;32.67;;;;;;;3.50;100.00;99930.94;4952155;29;20035;-77
2023/01/10 03:19:19;;;;;;;57.30;29.45;;;;;;;3.66;100.00;99950.53;4952509;29;20469;-78
2023/01/10 03:21:47;;;;;;;63.65;33.55;;;;;;;3.66;100.00;99958.19;4952141;29;20081;-76
2023/01/10 03:24:17;;;;;;;61.25;31.83;;;;;;;3.66;100.00;99949.66;4952123;29;20031;-75
2023/01/10 03:27:00;;;;;;;59.10;31.75;;;;;;;3.70;100.00;99942.25;4952167;29;20031;-76
2023/01/10 03:30:13;;;;;;;58.97;30.10;;;;;;;3.67;100.00;99939.53;4951985;29;20086;-76
2023/01/10 03:32:40;;;;;;;57.83;29.98;;;;;;;3.66;100.00;99945.41;4951955;29;20094;-76
2023/01/10 03:35:06;;;;;;;58.20;30.45;;;;;;;3.67;100.00;99944.63;4952170;28;20068;-77
2023/01/10 03:37:41;;;;;;;57.97;29.90;;;;;;;3.46;100.00;99917.91;4950801;28;20034;-79
2023/01/10 03:40:24;;;;;;;56.60;31.92;;;;;;;3.44;100.00;99910.19;4968136;28;20101;-77
2023/01/10 03:45:49;;;;;;;59.05;31.48;;;;;;;3.63;100.00;99945.25;4990349;28;20141;-77
2023/01/10 03:48:17;;;;;;;58.58;33.22;;;;;;;3.53;100.00;99918.34;4990582;28;20045;-76
2023/01/10 03:50:43;;;;;;;56.78;33.50;;;;;;;3.62;100.00;99930.72;5002325;28;20041;-79
2023/01/10 03:53:11;;;;;;;63.65;35.38;;;;;;;3.69;100.00;99931.97;5029605;28;20036;-78
2023/01/10 03:55:39;;;;;;;61.22;36.72;;;;;;;3.62;100.00;99922.22;5029387;28;20496;-76
2023/01/10 03:58:06;;;;;;;60.85;35.53;;;;;;;3.75;100.00;99942.53;5029540;28;20041;-76
2023/01/10 04:00:31;;;;;;;61.65;36.13;;;;;;;3.55;100.00;99898.88;5029450;28;20563;-76
2023/01/10 04:02:58;;;;;;;58.13;35.17;;;;;;;3.79;100.00;99941.91;5029384;28;20117;-77
2023/01/10 04:05:24;;;;;;;62.88;35.47;;;;;;;3.79;100.00;99948.66;5029348;28;20044;-81
2023/01/10 04:07:49;;;;;;;63.13;36.63;;;;;;;3.80;100.00;99941.09;5029638;28;20467;-75
2023/01/10 04:10:15;;;;;;;56.67;35.40;;;;;;;3.45;100.00;99875.31;5032196;28;20051;-77
2023/01/10 04:12:40;;;;;;;59.15;36.35;;;;;;;3.90;100.00;99945.06;5029368;28;20416;-77
2023/01/10 04:15:06;;;;;;;57.28;35.90;;;;;;;3.85;100.00;99926.00;5030758;28;20025;-77
2023/01/10 04:17:31;;;;;;;59.53;37.75;;;;;;;3.97;100.00;99936.91;5031875;28;20022;-75
2023/01/10 04:19:57;;;;;;;61.83;37.70;;;;;;;4.02;100.00;99939.72;5032009;28;20453;-77
2023/01/10 04:22:22;;;;;;;64.20;39.05;;;;;;;4.03;100.00;99921.91;5032027;28;20030;-78
2023/01/10 04:24:50;;;;;;;66.00;40.00;;;;;;;4.08;100.00;99914.50;5031967;28;20025;-77
2023/01/10 04:27:15;;;;;;;64.88;38.78;;;;;;;4.09;100.00;99905.16;5031972;28;20025;-76
2023/01/10 04:29:41;;;;;;;65.93;39.33;;;;;;;4.17;100.00;99924.34;5029271;28;20045;-77
2023/01/10 04:32:06;;;;;;;63.38;39.63;;;;;;;3.97;100.00;99879.84;5031393;28;20033;-77
2023/01/10 04:34:32;;;;;;;63.08;38.58;;;;;;;4.22;100.00;99915.25;5031765;28;20029;-77
2023/01/10 04:36:57;;;;;;;65.22;38.53;;;;;;;4.25;100.00;99917.06;5031769;28;20021;-77
2023/01/10 04:39:23;;;;;;;72.72;39.17;;;;;;;4.00;100.00;99863.03;5031137;28;20144;-79
2023/01/10 04:41:48;;;;;;;66.32;40.45;;;;;;;4.19;100.00;99900.63;5029824;28;20026;-77
2023/01/10 04:44:14;;;;;;;68.50;38.92;;;;;;;4.23;100.00;99913.59;5031453;28;20117;-77
2023/01/10 04:46:39;;;;;;;68.10;38.10;;;;;;;4.25;100.00;99900.09;5030827;28;20053;-77
2023/01/10 04:49:05;;;;;;;66.63;39.35;;;;;;;4.25;100.00;99884.75;5031401;28;20038;-80
2023/01/10 04:51:30;;;;;;;72.95;38.78;;;;;;;4.25;100.00;99886.41;5031407;28;20033;-77
2023/01/10 04:53:56;;;;;;;69.80;40.03;;;;;;;4.10;100.00;99858.38;5031440;28;20031;-77
2023/01/10 04:56:22;;;;;;;71.30;39.08;;;;;;;4.29;100.00;99883.25;5031156;28;20030;-77
2023/01/10 04:58:48;;;;;;;63.38;38.17;;;;;;;4.33;100.00;99890.28;5031135;28;20158;-77
2023/01/10 05:01:20;;;;;;;68.53;41.58;;;;;;;4.30;100.00;99895.19;5031002;28;20033;-76
2023/01/10 05:03:53;;;;;;;69.40;41.20;;;;;;;4.38;100.00;99899.91;5029752;28;20086;-77
2023/01/10 05:06:20;;;;;;;69.63;41.08;;;;;;;4.46;100.00;99896.88;5031110;28;20029;-77
2023/01/10 05:08:46;;;;;;;61.50;37.63;;;;;;;4.45;100.00;99895.13;5030880;28;20037;-75
2023/01/10 05:11:12;;;;;;;66.75;39.05;;;;;;;4.50;100.00;99904.81;5030859;28;20029;-76
2023/01/10 05:13:38;;;;;;;76.68;39.22;;;;;;;4.30;100.00;99864.53;5030754;28;20037;-77
2023/01/10 05:16:04;;;;;;;69.47;39.33;;;;;;;4.52;100.00;99907.44;5030870;28;20037;-75
2023/01/10 05:18:30;;;;;;;70.95;39.30;;;;;;;4.54;100.00;99909.28;5029404;28;20407;-77
2023/01/10 05:21:04;;;;;;;72.10;40.10;;;;;;;4.34;100.00;99882.66;5030858;28;20040;-73
2023/01/10 05:23:30;;;;;;;69.05;40.88;;;;;;;4.60;100.00;99918.94;5030556;28;20102;-73
2023/01/10 05:25:55;;;;;;;72.18;41.33;;;;;;;4.48;100.00;99879.97;5030451;28;20069;-76
2023/01/10 05:28:21;;;;;;;66.95;39.70;;;;;;;4.70;100.00;99916.06;5030612;28;20392;-73
2023/01/10 05:30:46;;;;;;;66.97;39.90;;;;;;;4.54;100.00;99864.94;5030390;28;20139;-82
2023/01/10 05:33:12;;;;;;;71.18;39.80;;;;;;;4.73;100.00;99883.78;5030830;28;20033;-83
2023/01/10 05:35:37;;;;;;;67.68;39.28;;;;;;;4.70;100.00;99861.50;5029258;28;20030;-79
2023/01/10 05:38:03;;;;;;;71.20;41.35;;;;;;;4.92;100.00;99891.59;5029171;28;20463;-79
2023/01/10 05:40:28;;;;;;;62.42;38.47;;;;;;;4.95;100.00;99868.72;5029231;28;20572;-79
2023/01/10 05:42:55;;;;;;;67.10;38.47;;;;;;;5.02;100.00;99875.88;5012552;28;20040;-78
2023/01/10 05:45:21;;;;;;;68.38;39.55;;;;;;;5.14;100.00;99888.41;5028939;28;20111;-84
2023/01/10 05:47:46;;;;;;;67.35;38.67;;;;;;;5.15;100.00;99889.28;5029301;28;20041;-82
2023/01/10 05:50:12;;;;;;;63.63;38.78;;;;;;;4.99;100.00;99874.84;5029221;28;20029;-85
2023/01/10 05:52:37;;;;;;;70.63;41.47;;;;;;;5.02;100.00;99886.13;5010233;28;20036;-79
2023/01/10 05:55:03;;;;;;;69.45;39.65;;;;;;;5.13;100.00;99898.56;5009398;28;20042;-78
2023/01/10 05:57:28;;;;;;;63.80;37.90;;;;;;;4.87;100.00;99854.66;5009012;28;20036;-83
2023/01/10 05:59:54;;;;;;;70.47;39.92;;;;;;;5.03;100.00;99876.75;5009184;28;20415;-81
2023/01/10 06:02:19;;;;;;;67.93;39.88;;;;;;;4.89;100.00;99847.94;5009257;28;20071;-83
2023/01/10 06:04:45;;;;;;;62.58;39.97;;;;;;;5.00;100.00;99857.03;5002316;28;20084;-82
2023/01/10 06:07:10;;;;;;;72.78;40.78;;;;;;;5.09;100.00;99859.16;4996337;28;20492;-81
2023/01/10 06:09:35;;;;;;;74.25;42.13;;;;;;;5.09;100.00;99850.59;4990572;28;20109;-82
2023/01/10 06:12:01;;;;;;;73.78;41.95;;;;;;;5.14;100.00;99852.56;4989555;28;20026;-84
2023/01/10 06:14:26;;;;;;;76.28;46.40;;;;;;;5.13;100.00;99860.19;4990873;28;20034;-79
2023/01/10 06:16:52;;;;;;;79.03;49.63;;;;;;;5.15;100.00;99866.25;5001456;28;20029;-88
2023/01/10 06:19:17;;;;;;;83.30;49.10;;;;;;;5.16;100.00;99856.09;4999473;28;20684;-77
2023/01/10 06:21:43;;;;;;;82.57;50.17;;;;;;;5.34;100.00;99848.41;5008164;28;20382;-79
2023/01/10 06:24:08;;;;;;;77.85;46.90;;;;;;;5.23;100.00;99823.13;5009655;28;20501;-79
2023/01/10 06:26:34;;;;;;;69.78;43.67;;;;;;;5.37;100.00;99826.34;5008038;28;20022;-77
2023/01/10 06:28:59;;;;;;;75.93;42.72;;;;;;;5.66;100.00;99864.44;5009754;28;20041;-78
2023/01/10 06:31:25;;;;;;;69.35;42.92;;;;;;;5.71;100.00;99845.81;5008314;28;20025;-79
2023/01/10 06:33:51;;;;;;;51.78;32.97;;;;;;;5.81;100.00;99813.03;5009568;28;20747;-79
2023/01/10 06:36:17;;;;;;;52.75;33.17;;;;;;;6.56;100.00;99855.66;5008242;28;20041;-79
2023/01/10 06:38:42;;;;;;;50.67;32.30;;;;;;;6.72;100.00;99862.31;5025997;28;20026;-86
2023/01/10 06:41:13;;;;;;;46.78;31.15;;;;;;;6.80;100.00;99848.13;5013304;28;20460;-79
2023/01/10 06:43:44;;;;;;;42.35;26.42;;;;;;;7.01;100.00;99847.25;4999394;28;20041;-78
2023/01/10 06:46:15;;;;;;;38.67;23.75;;;;;;;7.29;100.00;99836.41;5010883;28;20054;-78
2023/01/10 06:48:44;;;;;;;44.97;27.50;;;;;;;7.52;100.00;99849.28;5013355;28;20435;-79
2023/01/10 06:51:11;;;;;;;41.97;25.55;;;;;;;7.59;100.00;99845.28;5003488;28;20042;-75
2023/01/10 06:53:37;;;;;;;32.95;23.08;;;;;;;7.67;100.00;99825.03;4996445;28;20037;-76
2023/01/10 06:56:04;;;;;;;34.22;21.25;;;;;;;7.99;100.00;99846.78;4993089;28;20030;-78
2023/01/10 06:58:30;;;;;;;34.40;20.30;;;;;;;7.98;100.00;99832.19;4993007;28;20018;-75
2023/01/10 07:00:56;;;;;;;28.50;19.27;;;;;;;8.19;100.00;99842.38;4993132;28;20105;-74
2023/01/10 07:03:21;;;;;;;32.83;21.80;;;;;;;8.17;100.00;99828.56;4994942;28;20023;-76
2023/01/10 07:05:47;;;;;;;30.45;18.25;;;;;;;8.29;100.00;99828.16;4992756;28;20026;-75
2023/01/10 07:08:12;;;;;;;32.30;19.35;;;;;;;8.35;100.00;99823.22;4992554;28;20046;-77
2023/01/10 07:10:43;;;;;;;26.65;18.27;;;;;;;8.39;100.00;99826.78;4992358;28;20052;-79
2023/01/10 07:13:09;;;;;;;30.45;19.50;;;;;;;8.20;100.00;99778.94;4991561;28;20018;-76
2023/01/10 07:15:34;;;;;;;22.77;16.27;;;;;;;8.37;100.00;99803.59;4992471;28;20452;-78
2023/01/10 07:18:00;;;;;;;28.63;16.92;;;;;;;8.50;100.00;99794.63;4990848;28;20025;-74
2023/01/10 07:20:27;;;;;;;22.60;14.73;;;;;;;8.49;100.00;99792.00;4992658;28;20558;-72
2023/01/10 07:22:58;;;;;;;25.38;17.02;;;;;;;8.58;100.00;99803.50;4992324;28;20022;-75
2023/01/10 07:25:26;;;;;;;22.75;13.55;;;;;;;8.47;100.00;99763.63;4992384;28;20069;-76
2023/01/10 07:27:54;;;;;;;23.02;12.15;;;;;;;8.55;100.00;99766.50;4992992;28;20413;-73
2023/01/10 07:30:21;;;;;;;23.85;13.68;;;;;;;8.70;100.00;99790.16;4992528;28;20121;-74
2023/01/10 07:32:55;;;;;;;22.85;14.55;;;;;;;8.78;100.00;99782.69;4992856;28;20026;-76
2023/01/10 07:35:22;;;;;;;17.23;10.85;;;;;;;8.77;100.00;99783.50;4999534;28;20034;-78
2023/01/10 07:37:47;;;;;;;15.57;8.80;;;;;;;8.76;100.00;99760.28;4992020;28;20034;-73
2023/01/10 07:40:13;;;;;;;18.95;12.55;;;;;;;8.76;100.00;99771.47;4991866;28;20097;-75
2023/01/10 07:42:38;;;;;;;18.85;12.77;;;;;;;8.76;100.00;99771.47;4990797;28;20026;-73
2023/01/10 07:45:06;;;;;;;19.08;10.98;;;;;;;8.73;100.00;99771.38;4991472;28;20035;-72
2023/01/10 07:47:31;;;;;;;20.77;10.88;;;;;;;8.76;100.00;99756.03;4991818;28;20041;-71
2023/01/10 07:49:56;;;;;;;17.70;11.07;;;;;;;8.74;100.00;99737.09;4991896;28;20030;-74
2023/01/10 07:52:22;;;;;;;19.73;9.80;;;;;;;8.66;100.00;99733.38;4991790;28;20038;-73
2023/01/10 07:54:47;;;;;;;18.48;10.68;;;;;;;8.64;100.00;99699.88;4994726;28;20037;-77
2023/01/10 07:57:13;;;;;;;22.85;10.15;;;;;;;8.84;100.00;99772.59;4998124;28;20121;-74
2023/01/10 07:59:38;;;;;;;20.58;11.68;;;;;;;8.78;100.00;99762.09;4991826;28;20027;-73
2023/01/10 08:02:04;;;;;;;17.30;9.50;;;;;;;8.85;100.00;99746.03;4998315;28;20026;-73
2023/01/10 08:04:29;;;;;;;17.15;9.65;;;;;;;8.89;100.00;99762.44;5011970;28;20523;-74
2023/01/10 08:06:54;;;;;;;17.75;10.48;;;;;;;8.89;100.00;99768.47;5011162;28;20029;-72
2023/01/10 08:09:20;;;;;;;20.15;11.27;;;;;;;8.98;100.00;99777.31;5007094;28;20030;-78
2023/01/10 08:11:45;;;;;;;16.20;10.95;;;;;;;8.99;100.00;99754.19;5012013;28;20036;-76
2023/01/10 08:14:11;;;;;;;13.13;8.32;;;;;;;9.06;100.00;99758.72;5012018;28;20036;-76
2023/01/10 08:16:36;;;;;;;19.02;11.77;;;;;;;9.10;100.00;99754.53;5012103;28;20060;-75
2023/01/10 08:19:01;;;;;;;14.70;8.63;;;;;;;9.06;100.00;99722.66;5011690;28;20731;-76
2023/01/10 08:21:27;;;;;;;17.15;11.30;;;;;;;9.08;100.00;99720.13;5011619;28;20408;-75
2023/01/10 08:23:53;;;;;;;18.58;11.07;;;;;;;9.20;100.00;99738.53;5012076;28;20034;-74
2023/01/10 08:26:19;;;;;;;15.68;10.43;;;;;;;9.25;100.00;99730.09;5011776;28;20036;-73
2023/01/10 08:28:44;;;;;;;21.92;11.75;;;;;;;9.08;100.00;99707.25;5011286;28;20037;-75
2023/01/10 08:31:10;;;;;;;20.70;13.80;;;;;;;9.32;100.00;99744.88;5011981;28;20112;-76
2023/01/10 08:33:41;;;;;;;16.92;11.38;;;;;;;9.37;100.00;99731.31;5011934;28;20117;-76
2023/01/10 08:36:15;;;;;;;20.52;13.57;;;;;;;9.46;100.00;99745.28;5010990;28;20035;-77
2023/01/10 08:38:40;;;;;;;22.65;13.20;;;;;;;9.35;100.00;99707.22;4992929;28;20411;-75
2023/01/10 08:41:06;;;;;;;13.40;8.32;;;;;;;9.25;100.00;99663.13;4991949;28;20027;-72
2023/01/10 08:43:31;;;;;;;18.98;12.23;;;;;;;9.60;100.00;99730.25;4992112;28;20032;-75
2023/01/10 08:45:58;;;;;;;18.20;12.23;;;;;;;9.65;100.00;99732.13;4991902;28;20063;-75
2023/01/10 08:48:24;;;;;;;20.30;12.38;;;;;;;9.61;100.00;99717.41;4991949;28;20665;-75
2023/01/10 08:50:49;;;;;;;19.45;11.77;;;;;;;9.70;100.00;99737.41;4992030;28;20030;-76
2023/01/10 08:53:15;;;;;;;28.10;11.43;;;;;;;9.71;100.00;99723.69;4999116;28;20026;-76
2023/01/10 08:55:40;;;;;;;18.85;10.52;;;;;;;9.71;100.00;99706.53;5011083;28;20567;-76
2023/01/10 08:58:05;;;;;;;18.45;11.18;;;;;;;9.65;100.00;99680.56;5011157;28;20416;-76
2023/01/10 09:00:31;;;;;;;18.75;10.70;;;;;;;9.77;100.00;99705.84;5010903;28;20507;-80
2023/01/10 09:02:56;;;;;;;16.80;9.13;;;;;;;9.73;100.00;99682.50;5010790;28;20033;-76
2023/01/10 09:05:22;;;;;;;17.55;9.13;;;;;;;9.76;100.00;99657.69;5011477;28;20062;-77
2023/01/10 09:07:49;;;;;;;14.73;9.05;;;;;;;9.71;100.00;99661.84;5011149;28;20431;-78
2023/01/10 09:10:15;;;;;;;18.55;11.45;;;;;;;9.90;100.00;99660.63;5011344;28;20488;-77
2023/01/10 09:12:56;;;;;;;18.17;11.43;;;;;;;9.85;100.00;99670.81;5011246;28;20072;-77
2023/01/10 09:15:33;;;;;;;19.85;9.38;;;;;;;9.86;100.00;99664.81;5010937;28;20412;-78
2023/01/10 09:18:03;;;;;;;19.75;9.93;;;;;;;9.96;100.00;99665.94;5010508;28;20026;-77
2023/01/10 09:20:29;;;;;;;;;;;;;;;9.96;100.00;99659.94;5011447;28;20034;-77
2023/01/10 09:22:55;;;;;;;18.92;11.45;;;;;;;9.73;100.00;99636.97;5010957;28;19988;-78
2023/01/10 09:25:21;;;;;;;18.63;12.10;;;;;;;9.86;100.00;99645.91;5010661;28;20033;-78
2023/01/10 09:27:47;;;;;;;20.77;11.02;;;;;;;9.86;100.00;99639.03;5010709;28;20042;-78
2023/01/10 09:30:13;;;;;;;16.00;9.45;;;;;;;9.77;100.00;99599.25;5010846;28;20052;-77
2023/01/10 09:32:38;;;;;;;14.73;8.80;;;;;;;9.82;100.00;99637.22;5010814;28;20404;-75
2023/01/10 09:35:04;;;;;;;19.58;10.05;;;;;;;9.86;100.00;99635.59;5010853;28;20026;-76
2023/01/10 09:37:32;;;;;;;16.40;10.40;;;;;;;9.70;100.00;99595.66;5010939;28;20079;-74
2023/01/10 09:39:58;;;;;;;20.15;11.18;;;;;;;9.94;100.00;99605.72;5010783;28;20026;-76
2023/01/10 09:42:37;;;;;;;18.75;9.63;;;;;;;9.98;100.00;99612.72;5010788;28;20052;-74
2023/01/10 09:45:23;;;;;;;16.80;10.90;;;;;;;10.04;100.00;99599.97;5010562;28;20045;-75
2023/01/10 09:47:53;;;;;;;19.27;11.63;;;;;;;9.87;100.00;99560.00;5010764;28;20451;-75
2023/01/10 09:50:53;;;;;;;17.25;9.35;;;;;;;10.10;100.00;99585.50;5010693;28;20032;-76
2023/01/10 09:53:21;;;;;;;19.52;9.77;;;;;;;10.09;100.00;99574.28;5010717;28;20030;-77
2023/01/10 09:55:56;;;;;;;14.15;9.50;;;;;;;10.09;100.00;99548.50;5009358;28;20124;-76
2023/01/10 09:58:28;;;;;;;15.48;9.10;;;;;;;10.16;100.00;99558.13;5010967;28;20034;-77
2023/01/10 10:00:57;;;;;;;15.43;9.15;;;;;;;10.22;100.00;99552.25;5010540;28;20033;-77
2023/01/10 10:03:31;;;;;;;19.90;9.80;;;;;;;10.29;100.00;99541.25;5010537;28;20025;-77
2023/01/10 10:05:57;;;;;;;12.18;7.15;;;;;;;10.16;100.00;99506.53;5007269;28;20116;-76
2023/01/10 10:08:23;;;;;;;20.08;9.52;;;;;;;10.34;100.00;99538.75;4990676;28;20034;-77
2023/01/10 10:10:57;;;;;;;13.60;8.32;;;;;;;10.31;100.00;99533.53;4991003;28;20038;-76
2023/01/10 10:13:31;;;;;;;15.27;8.82;;;;;;;9.95;100.00;99472.53;4991892;28;20057;-75
2023/01/10 10:16:21;;;;;;;10.45;7.32;;;;;;;10.27;100.00;99529.13;4994533;28;20492;-76
2023/01/10 10:19:05;;;;;;;17.65;9.55;;;;;;;10.22;100.00;99528.16;4994626;28;20029;-75
2023/01/10 10:21:48;;;;;;;13.75;7.95;;;;;;;10.05;100.00;99526.06;5003965;28;20104;-74
2023/01/10 10:24:21;;;;;;;12.70;8.85;;;;;;;9.55;100.00;99464.72;5003487;28;20022;-76
2023/01/10 10:26:58;;;;;;;19.65;9.38;;;;;;;9.78;100.00;99506.53;5003849;28;20101;-76
2023/01/10 10:30:05;;;;;;;13.25;7.65;;;;;;;9.67;100.00;99508.81;5003139;28;20080;-75
2023/01/10 10:32:58;;;;;;;15.35;8.93;;;;;;;9.58;100.00;99492.25;4962653;28;20039;-76
2023/01/10 10:35:30;;;;;;;15.55;10.30;;;;;;;9.55;100.00;99499.06;4961567;28;20031;-77
2023/01/10 10:38:04;;;;;;;15.32;10.07;;;;;;;9.32;100.00;99443.50;4961125;28;20058;-77
2023/01/10 10:40:38;;;;;;;15.90;10.45;;;;;;;9.55;100.00;99475.88;4945836;28;20122;-77
2023/01/10 10:43:17;;;;;;;15.20;8.32;;;;;;;9.64;100.00;99464.94;4963697;28;20556;-80
2023/01/10 10:46:11;;;;;;;13.02;8.60;;;;;;;9.75;100.00;99448.88;4957141;28;20055;-77
2023/01/10 10:48:55;;;;;;;19.27;10.82;;;;;;;9.79;100.00;99441.22;4904422;29;20039;-77
2023/01/10 10:51:44;;;;;;;15.07;9.13;;;;;;;9.81;100.00;99423.25;4904851;29;20040;-76
2023/01/10 10:54:12;;;;;;;14.93;10.07;;;;;;;9.70;100.00;99418.69;4911512;29;20574;-76
2023/01/10 10:56:38;;;;;;;14.23;8.55;;;;;;;9.73;100.00;99415.31;4911163;29;20037;-76
2023/01/10 10:59:04;;;;;;;12.77;9.30;;;;;;;9.70;100.00;99404.94;4906902;29;20092;-78
2023/01/10 11:01:30;;;;;;;15.23;10.10;;;;;;;9.53;100.00;99358.16;4896774;29;20036;-76
2023/01/10 11:04:01;;;;;;;17.15;9.68;;;;;;;9.69;100.00;99377.41;4913596;29;20044;-77
2023/01/10 11:06:29;;;;;;;11.95;7.47;;;;;;;9.81;100.00;99380.28;4913698;29;20040;-81
2023/01/10 11:08:59;;;;;;;14.15;8.80;;;;;;;9.89;100.00;99393.31;4927598;28;20039;-77
2023/01/10 11:11:33;;;;;;;12.35;8.85;;;;;;;9.86;100.00;99370.94;4971195;28;20489;-78
2023/01/10 11:14:03;;;;;;;15.77;9.60;;;;;;;9.86;100.00;99350.31;4971255;28;20126;-78
2023/01/10 11:16:32;;;;;;;18.40;10.35;;;;;;;10.00;100.00;99357.47;4971058;28;20830;-77
2023/01/10 11:19:29;;;;;;;12.15;7.80;;;;;;;10.06;100.00;99375.66;4971073;28;20035;-78
2023/01/10 11:22:01;;;;;;;20.33;9.70;;;;;;;10.10;100.00;99350.81;4970748;28;20042;-78
2023/01/10 11:24:33;;;;;;;12.23;9.10;;;;;;;10.14;100.00;99357.75;4969700;28;20034;-78
2023/01/10 11:27:03;;;;;;;13.65;9.05;;;;;;;9.98;100.00;99302.41;4946660;28;20047;-83
2023/01/10 11:29:31;;;;;;;;;;;;;;;10.20;100.00;99329.53;4950223;28;20129;-79
2023/01/10 11:31:58;;;;;;;17.77;8.75;;;;;;;10.22;100.00;99343.31;4949468;28;19914;-80
2023/01/10 11:34:30;;;;;;;17.30;9.38;;;;;;;10.19;100.00;99322.63;4951026;28;20509;-83